sensor_id;sensor_type;location;lat;lon;timestamp;pressure;altitude;pressure_sealevel;temperature;humidity
26443;BME280;5563;52.296;6.806;2023-05-20T00:01:03;102342.72;;;11.26;67.71
26443;BME280;5563;52.296;6.806;2023-05-20T00:03:37;102384.16;;;11.47;67.78
26443;BME280;5563;52.296;6.806;2023-05-20T00:06:20;102347.78;;;11.30;68.05
26443;BME280;5563;52.296;6.806;2023-05-20T00:09:08;102368.59;;;11.39;67.72
26443;BME280;5563;52.296;6.806;2023-05-20T00:11:35;102363.34;;;11.38;68.55
26443;BME280;5563;52.296;6.806;2023-05-20T00:14:09;102361.81;;;11.34;68.51
26443;BME280;5563;52.296;6.806;2023-05-20T00:16:43;102371.47;;;11.36;68.92
26443;BME280;5563;52.296;6.806;2023-05-20T00:19:10;102345.13;;;11.30;68.94
26443;BME280;5563;52.296;6.806;2023-05-20T00:21:43;102365.00;;;11.40;68.81
26443;BME280;5563;52.296;6.806;2023-05-20T00:24:10;102357.03;;;11.39;68.70
26443;BME280;5563;52.296;6.806;2023-05-20T00:26:44;102344.94;;;11.33;68.66
26443;BME280;5563;52.296;6.806;2023-05-20T00:29:11;102352.97;;;11.33;68.83
26443;BME280;5563;52.296;6.806;2023-05-20T00:31:45;102353.69;;;11.35;68.96
26443;BME280;5563;52.296;6.806;2023-05-20T00:34:13;102353.03;;;11.32;69.05
26443;BME280;5563;52.296;6.806;2023-05-20T00:36:46;102376.34;;;11.44;68.72
26443;BME280;5563;52.296;6.806;2023-05-20T00:39:13;102350.09;;;11.36;69.00
26443;BME280;5563;52.296;6.806;2023-05-20T00:42:00;102365.38;;;11.48;68.55
26443;BME280;5563;52.296;6.806;2023-05-20T00:44:35;102357.72;;;11.42;68.71
26443;BME280;5563;52.296;6.806;2023-05-20T00:47:02;102346.88;;;11.45;68.91
26443;BME280;5563;52.296;6.806;2023-05-20T00:49:36;102346.88;;;11.45;68.88
26443;BME280;5563;52.296;6.806;2023-05-20T00:52:04;102346.78;;;11.47;68.79
26443;BME280;5563;52.296;6.806;2023-05-20T00:54:39;102357.09;;;11.53;68.87
26443;BME280;5563;52.296;6.806;2023-05-20T00:57:07;102322.31;;;11.39;68.85
26443;BME280;5563;52.296;6.806;2023-05-20T00:59:41;102341.63;;;11.44;68.64
26443;BME280;5563;52.296;6.806;2023-05-20T01:02:10;102342.47;;;11.44;68.83
26443;BME280;5563;52.296;6.806;2023-05-20T01:04:43;102340.56;;;11.46;68.91
26443;BME280;5563;52.296;6.806;2023-05-20T01:07:15;102345.13;;;11.44;69.18
26443;BME280;5563;52.296;6.806;2023-05-20T01:09:49;102345.91;;;11.46;69.18
26443;BME280;5563;52.296;6.806;2023-05-20T01:12:37;102362.16;;;11.57;68.87
26443;BME280;5563;52.296;6.806;2023-05-20T01:15:14;102359.47;;;11.57;69.51
26443;BME280;5563;52.296;6.806;2023-05-20T01:17:46;102356.34;;;11.51;69.35
26443;BME280;5563;52.296;6.806;2023-05-20T01:20:23;102332.75;;;11.43;69.93
26443;BME280;5563;52.296;6.806;2023-05-20T01:22:55;102334.28;;;11.47;69.58
26443;BME280;5563;52.296;6.806;2023-05-20T01:25:29;102323.09;;;11.41;69.48
26443;BME280;5563;52.296;6.806;2023-05-20T01:28:03;102327.59;;;11.40;69.24
26443;BME280;5563;52.296;6.806;2023-05-20T01:30:41;102342.31;;;11.47;70.07
26443;BME280;5563;52.296;6.806;2023-05-20T01:33:12;102340.41;;;11.49;70.10
26443;BME280;5563;52.296;6.806;2023-05-20T01:35:47;102344.69;;;11.52;69.59
26443;BME280;5563;52.296;6.806;2023-05-20T01:38:22;102361.28;;;11.57;69.78
26443;BME280;5563;52.296;6.806;2023-05-20T01:41:11;102359.38;;;11.59;68.99
26443;BME280;5563;52.296;6.806;2023-05-20T01:43:38;102327.78;;;11.37;69.24
26443;BME280;5563;52.296;6.806;2023-05-20T01:46:14;102328.53;;;11.39;69.40
26443;BME280;5563;52.296;6.806;2023-05-20T01:48:48;102345.66;;;11.51;69.76
26443;BME280;5563;52.296;6.806;2023-05-20T01:51:21;102349.16;;;11.51;69.54
26443;BME280;5563;52.296;6.806;2023-05-20T01:53:56;102335.69;;;11.39;69.77
26443;BME280;5563;52.296;6.806;2023-05-20T01:56:29;102350.56;;;11.43;70.27
26443;BME280;5563;52.296;6.806;2023-05-20T01:59:04;102318.22;;;11.19;69.81
26443;BME280;5563;52.296;6.806;2023-05-20T02:01:31;102307.13;;;11.11;69.92
26443;BME280;5563;52.296;6.806;2023-05-20T02:04:05;102352.53;;;11.25;70.11
26443;BME280;5563;52.296;6.806;2023-05-20T02:06:38;102322.66;;;11.05;70.80
26443;BME280;5563;52.296;6.806;2023-05-20T02:09:11;102333.72;;;11.13;70.93
26443;BME280;5563;52.296;6.806;2023-05-20T02:11:39;102332.56;;;11.03;70.77
26443;BME280;5563;52.296;6.806;2023-05-20T02:14:12;102296.56;;;10.80;71.01
26443;BME280;5563;52.296;6.806;2023-05-20T02:16:39;102295.88;;;10.76;71.31
26443;BME280;5563;52.296;6.806;2023-05-20T02:19:14;102319.41;;;10.84;71.71
26443;BME280;5563;52.296;6.806;2023-05-20T02:21:49;102330.38;;;10.79;71.70
26443;BME280;5563;52.296;6.806;2023-05-20T02:24:25;102309.84;;;10.66;72.12
26443;BME280;5563;52.296;6.806;2023-05-20T02:26:53;102326.59;;;10.68;72.01
26443;BME280;5563;52.296;6.806;2023-05-20T02:29:27;102308.63;;;10.56;72.46
26443;BME280;5563;52.296;6.806;2023-05-20T02:32:01;102331.44;;;10.61;72.19
26443;BME280;5563;52.296;6.806;2023-05-20T02:34:29;102325.50;;;10.56;71.63
26443;BME280;5563;52.296;6.806;2023-05-20T02:37:03;102307.97;;;10.37;72.82
26443;BME280;5563;52.296;6.806;2023-05-20T02:39:31;102337.38;;;10.51;72.93
26443;BME280;5563;52.296;6.806;2023-05-20T02:42:11;102320.09;;;10.42;72.79
26443;BME280;5563;52.296;6.806;2023-05-20T02:44:39;102315.88;;;10.38;73.09
26443;BME280;5563;52.296;6.806;2023-05-20T02:47:13;102314.28;;;10.36;73.50
26443;BME280;5563;52.296;6.806;2023-05-20T02:49:40;102295.59;;;10.20;73.68
26443;BME280;5563;52.296;6.806;2023-05-20T02:52:08;102299.44;;;10.15;73.96
26443;BME280;5563;52.296;6.806;2023-05-20T02:54:41;102310.75;;;10.20;74.27
26443;BME280;5563;52.296;6.806;2023-05-20T02:57:15;102293.59;;;10.08;74.13
26443;BME280;5563;52.296;6.806;2023-05-20T02:59:45;102312.34;;;10.22;74.26
26443;BME280;5563;52.296;6.806;2023-05-20T03:02:13;102309.09;;;10.17;74.48
26443;BME280;5563;52.296;6.806;2023-05-20T03:04:47;102299.97;;;10.06;73.94
26443;BME280;5563;52.296;6.806;2023-05-20T03:07:17;102314.59;;;10.14;74.58
26443;BME280;5563;52.296;6.806;2023-05-20T03:09:51;102324.91;;;10.20;74.71
26443;BME280;5563;52.296;6.806;2023-05-20T03:12:25;102311.06;;;10.14;74.78
26443;BME280;5563;52.296;6.806;2023-05-20T03:14:58;102308.78;;;10.06;74.38
26443;BME280;5563;52.296;6.806;2023-05-20T03:17:26;102312.19;;;10.10;74.32
26443;BME280;5563;52.296;6.806;2023-05-20T03:20:01;102327.34;;;10.08;73.52
26443;BME280;5563;52.296;6.806;2023-05-20T03:22:29;102316.28;;;10.00;74.58
26443;BME280;5563;52.296;6.806;2023-05-20T03:25:04;102331.06;;;10.05;74.66
26443;BME280;5563;52.296;6.806;2023-05-20T03:27:41;102313.09;;;9.93;75.31
26443;BME280;5563;52.296;6.806;2023-05-20T03:30:17;102332.78;;;10.06;75.38
26443;BME280;5563;52.296;6.806;2023-05-20T03:32:45;102338.88;;;10.08;75.03
26443;BME280;5563;52.296;6.806;2023-05-20T03:35:19;102315.69;;;9.95;75.25
26443;BME280;5563;52.296;6.806;2023-05-20T03:37:53;102319.94;;;9.97;75.20
26443;BME280;5563;52.296;6.806;2023-05-20T03:40:26;102333.91;;;10.02;75.28
26443;BME280;5563;52.296;6.806;2023-05-20T03:43:04;102302.84;;;9.86;75.59
26443;BME280;5563;52.296;6.806;2023-05-20T03:45:38;102325.63;;;9.91;75.69
26443;BME280;5563;52.296;6.806;2023-05-20T03:48:05;102303.53;;;9.73;76.02
26443;BME280;5563;52.296;6.806;2023-05-20T03:50:45;102327.59;;;9.88;76.05
26443;BME280;5563;52.296;6.806;2023-05-20T03:53:12;102315.78;;;9.76;76.07
26443;BME280;5563;52.296;6.806;2023-05-20T03:55:46;102329.50;;;9.86;75.45
26443;BME280;5563;52.296;6.806;2023-05-20T03:58:14;102309.69;;;9.74;76.25
26443;BME280;5563;52.296;6.806;2023-05-20T04:00:41;102324.56;;;9.78;76.25
26443;BME280;5563;52.296;6.806;2023-05-20T04:03:15;102306.41;;;9.69;76.59
26443;BME280;5563;52.296;6.806;2023-05-20T04:05:43;102327.16;;;9.79;76.71
26443;BME280;5563;52.296;6.806;2023-05-20T04:08:17;102312.53;;;9.71;76.43
26443;BME280;5563;52.296;6.806;2023-05-20T04:10:45;102349.06;;;9.84;76.77
26443;BME280;5563;52.296;6.806;2023-05-20T04:13:24;102325.53;;;9.77;76.13
26443;BME280;5563;52.296;6.806;2023-05-20T04:15:51;102311.66;;;9.70;76.42
26443;BME280;5563;52.296;6.806;2023-05-20T04:18:25;102331.28;;;9.85;76.35
26443;BME280;5563;52.296;6.806;2023-05-20T04:21:01;102311.44;;;9.75;76.93
26443;BME280;5563;52.296;6.806;2023-05-20T04:23:29;102331.19;;;9.87;76.58
26443;BME280;5563;52.296;6.806;2023-05-20T04:26:02;102318.63;;;9.73;76.46
26443;BME280;5563;52.296;6.806;2023-05-20T04:28:33;102325.53;;;9.77;76.32
26443;BME280;5563;52.296;6.806;2023-05-20T04:31:07;102320.19;;;9.77;76.08
26443;BME280;5563;52.296;6.806;2023-05-20T04:33:34;102327.94;;;9.81;76.05
26443;BME280;5563;52.296;6.806;2023-05-20T04:36:11;102330.19;;;9.89;75.97
26443;BME280;5563;52.296;6.806;2023-05-20T04:38:42;102313.59;;;9.84;76.25
26443;BME280;5563;52.296;6.806;2023-05-20T04:41:16;102314.19;;;9.89;75.51
26443;BME280;5563;52.296;6.806;2023-05-20T04:43:53;102344.06;;;10.11;75.89
26443;BME280;5563;52.296;6.806;2023-05-20T04:46:34;102326.84;;;10.01;75.88
26443;BME280;5563;52.296;6.806;2023-05-20T04:49:01;102324.34;;;9.98;76.11
26443;BME280;5563;52.296;6.806;2023-05-20T04:51:37;102339.53;;;10.13;76.02
26443;BME280;5563;52.296;6.806;2023-05-20T04:54:06;102311.38;;;10.08;75.67
26443;BME280;5563;52.296;6.806;2023-05-20T04:56:39;102335.06;;;10.29;75.68
26443;BME280;5563;52.296;6.806;2023-05-20T04:59:10;102356.66;;;10.40;75.30
26443;BME280;5563;52.296;6.806;2023-05-20T05:01:43;102320.16;;;10.25;74.38
26443;BME280;5563;52.296;6.806;2023-05-20T05:04:10;102339.19;;;10.35;74.54
26443;BME280;5563;52.296;6.806;2023-05-20T05:06:38;102350.22;;;10.44;74.78
26443;BME280;5563;52.296;6.806;2023-05-20T05:09:12;102323.38;;;10.32;74.45
26443;BME280;5563;52.296;6.806;2023-05-20T05:11:45;102340.91;;;10.51;73.95
26443;BME280;5563;52.296;6.806;2023-05-20T05:14:19;102326.63;;;10.52;74.15
26443;BME280;5563;52.296;6.806;2023-05-20T05:16:46;102327.41;;;10.54;74.28
26443;BME280;5563;52.296;6.806;2023-05-20T05:19:21;102352.66;;;10.78;73.57
26443;BME280;5563;52.296;6.806;2023-05-20T05:21:48;102346.88;;;10.86;73.18
26443;BME280;5563;52.296;6.806;2023-05-20T05:24:22;102345.47;;;10.95;72.93
26443;BME280;5563;52.296;6.806;2023-05-20T05:26:53;102319.06;;;10.90;73.10
26443;BME280;5563;52.296;6.806;2023-05-20T05:29:26;102313.38;;;10.96;72.70
26443;BME280;5563;52.296;6.806;2023-05-20T05:31:53;102318.09;;;11.07;71.78
26443;BME280;5563;52.296;6.806;2023-05-20T05:34:28;102325.56;;;11.16;71.90
26443;BME280;5563;52.296;6.806;2023-05-20T05:37:02;102318.56;;;11.13;71.29
26443;BME280;5563;52.296;6.806;2023-05-20T05:39:42;102321.56;;;11.23;71.42
26443;BME280;5563;52.296;6.806;2023-05-20T05:42:16;102336.66;;;11.38;70.27
26443;BME280;5563;52.296;6.806;2023-05-20T05:44:49;102315.75;;;11.30;70.15
26443;BME280;5563;52.296;6.806;2023-05-20T05:47:26;102315.97;;;11.41;70.63
26443;BME280;5563;52.296;6.806;2023-05-20T05:50:01;102314.63;;;11.48;70.20
26443;BME280;5563;52.296;6.806;2023-05-20T05:52:37;102310.63;;;11.55;69.08
26443;BME280;5563;52.296;6.806;2023-05-20T05:55:06;102306.91;;;11.58;69.29
26443;BME280;5563;52.296;6.806;2023-05-20T05:57:40;102320.47;;;11.69;69.22
26443;BME280;5563;52.296;6.806;2023-05-20T06:00:08;102306.53;;;11.64;69.62
26443;BME280;5563;52.296;6.806;2023-05-20T06:02:46;102323.19;;;11.83;68.34
26443;BME280;5563;52.296;6.806;2023-05-20T06:05:23;102342.53;;;12.01;68.00
26443;BME280;5563;52.296;6.806;2023-05-20T06:07:54;102348.47;;;12.06;67.13
26443;BME280;5563;52.296;6.806;2023-05-20T06:10:28;102345.38;;;12.12;67.24
26443;BME280;5563;52.296;6.806;2023-05-20T06:13:02;102345.00;;;12.18;67.21
26443;BME280;5563;52.296;6.806;2023-05-20T06:15:41;102338.97;;;12.28;67.17
26443;BME280;5563;52.296;6.806;2023-05-20T06:18:15;102321.38;;;12.24;65.51
26443;BME280;5563;52.296;6.806;2023-05-20T06:20:56;102311.47;;;12.26;66.81
26443;BME280;5563;52.296;6.806;2023-05-20T06:23:27;102334.13;;;12.47;66.67
26443;BME280;5563;52.296;6.806;2023-05-20T06:26:06;102302.19;;;12.32;66.44
26443;BME280;5563;52.296;6.806;2023-05-20T06:28:41;102318.09;;;12.47;65.75
26443;BME280;5563;52.296;6.806;2023-05-20T06:31:15;102301.84;;;12.50;66.38
26443;BME280;5563;52.296;6.806;2023-05-20T06:33:49;102337.03;;;12.71;65.34
26443;BME280;5563;52.296;6.806;2023-05-20T06:36:22;102304.47;;;12.64;64.97
26443;BME280;5563;52.296;6.806;2023-05-20T06:38:50;102287.78;;;12.61;65.76
26443;BME280;5563;52.296;6.806;2023-05-20T06:41:25;102301.63;;;12.80;65.09
26443;BME280;5563;52.296;6.806;2023-05-20T06:44:05;102294.38;;;12.82;65.33
26443;BME280;5563;52.296;6.806;2023-05-20T06:46:43;102288.50;;;12.89;65.12
26443;BME280;5563;52.296;6.806;2023-05-20T06:49:17;102298.38;;;13.01;64.61
26443;BME280;5563;52.296;6.806;2023-05-20T06:51:51;102293.16;;;13.13;65.12
26443;BME280;5563;52.296;6.806;2023-05-20T06:54:18;102295.31;;;13.20;63.94
26443;BME280;5563;52.296;6.806;2023-05-20T06:56:51;102286.09;;;13.24;64.47
26443;BME280;5563;52.296;6.806;2023-05-20T06:59:25;102290.38;;;13.39;63.09
26443;BME280;5563;52.296;6.806;2023-05-20T07:02:00;102279.38;;;13.44;62.52
26443;BME280;5563;52.296;6.806;2023-05-20T07:04:28;102276.69;;;13.44;63.46
26443;BME280;5563;52.296;6.806;2023-05-20T07:07:07;102282.56;;;13.61;64.34
26443;BME280;5563;52.296;6.806;2023-05-20T07:09:35;102273.25;;;13.67;62.53
26443;BME280;5563;52.296;6.806;2023-05-20T07:12:08;102289.94;;;13.83;61.74
26443;BME280;5563;52.296;6.806;2023-05-20T07:14:43;102282.00;;;13.94;62.95
26443;BME280;5563;52.296;6.806;2023-05-20T07:17:10;102266.00;;;13.92;62.54
26443;BME280;5563;52.296;6.806;2023-05-20T07:19:43;102273.31;;;14.03;62.28
26443;BME280;5563;52.296;6.806;2023-05-20T07:22:11;102264.16;;;14.05;60.83
26443;BME280;5563;52.296;6.806;2023-05-20T07:24:45;102297.38;;;14.28;61.19
26443;BME280;5563;52.296;6.806;2023-05-20T07:27:12;102280.84;;;14.22;59.00
26443;BME280;5563;52.296;6.806;2023-05-20T07:29:47;102278.59;;;14.28;60.72
26443;BME280;5563;52.296;6.806;2023-05-20T07:32:21;102284.03;;;14.39;59.10
26443;BME280;5563;52.296;6.806;2023-05-20T07:34:57;102264.28;;;14.40;59.08
26443;BME280;5563;52.296;6.806;2023-05-20T07:37:27;102273.13;;;14.53;57.99
26443;BME280;5563;52.296;6.806;2023-05-20T07:40:08;102257.03;;;14.53;58.93
26443;BME280;5563;52.296;6.806;2023-05-20T07:42:35;102279.56;;;14.74;57.24
26443;BME280;5563;52.296;6.806;2023-05-20T07:45:10;102256.84;;;14.67;58.65
26443;BME280;5563;52.296;6.806;2023-05-20T07:47:37;102280.00;;;14.92;57.83
26443;BME280;5563;52.296;6.806;2023-05-20T07:50:11;102249.50;;;14.93;57.09
26443;BME280;5563;52.296;6.806;2023-05-20T07:52:38;102243.63;;;14.88;56.55
26443;BME280;5563;52.296;6.806;2023-05-20T07:55:22;102261.41;;;15.12;56.97
26443;BME280;5563;52.296;6.806;2023-05-20T07:57:56;102248.78;;;15.13;56.84
26443;BME280;5563;52.296;6.806;2023-05-20T08:00:23;102234.91;;;15.19;55.97
26443;BME280;5563;52.296;6.806;2023-05-20T08:02:57;102236.13;;;15.26;54.99
26443;BME280;5563;52.296;6.806;2023-05-20T08:05:27;102248.41;;;15.41;55.63
26443;BME280;5563;52.296;6.806;2023-05-20T08:08:04;102254.28;;;15.57;56.09
26443;BME280;5563;52.296;6.806;2023-05-20T08:10:37;102249.13;;;15.65;54.43
26443;BME280;5563;52.296;6.806;2023-05-20T08:13:11;102244.13;;;15.72;54.44
26443;BME280;5563;52.296;6.806;2023-05-20T08:15:39;102233.75;;;15.78;55.02
26443;BME280;5563;52.296;6.806;2023-05-20T08:18:15;102243.72;;;15.98;53.64
26443;BME280;5563;52.296;6.806;2023-05-20T08:20:42;102229.91;;;16.14;53.10
26443;BME280;5563;52.296;6.806;2023-05-20T08:23:16;102233.53;;;16.24;52.33
26443;BME280;5563;52.296;6.806;2023-05-20T08:25:45;102224.00;;;16.20;51.24
26443;BME280;5563;52.296;6.806;2023-05-20T08:28:21;102246.38;;;16.32;50.57
26443;BME280;5563;52.296;6.806;2023-05-20T08:30:49;102243.28;;;16.36;52.54
26443;BME280;5563;52.296;6.806;2023-05-20T08:33:23;102246.22;;;16.44;52.07
26443;BME280;5563;52.296;6.806;2023-05-20T08:35:50;102223.66;;;16.45;52.02
26443;BME280;5563;52.296;6.806;2023-05-20T08:38:25;102252.06;;;16.81;49.90
26443;BME280;5563;52.296;6.806;2023-05-20T08:40:59;102235.88;;;16.92;49.94
26443;BME280;5563;52.296;6.806;2023-05-20T08:43:40;102246.69;;;16.81;49.73
26443;BME280;5563;52.296;6.806;2023-05-20T08:46:15;102233.72;;;16.75;49.61
26443;BME280;5563;52.296;6.806;2023-05-20T08:48:44;102239.59;;;17.00;50.44
26443;BME280;5563;52.296;6.806;2023-05-20T08:51:19;102231.28;;;17.34;50.65
26443;BME280;5563;52.296;6.806;2023-05-20T08:53:49;102234.75;;;17.66;50.05
26443;BME280;5563;52.296;6.806;2023-05-20T08:56:26;102222.31;;;17.84;49.17
26443;BME280;5563;52.296;6.806;2023-05-20T08:58:56;102211.53;;;17.84;48.00
26443;BME280;5563;52.296;6.806;2023-05-20T09:01:29;102227.94;;;17.71;48.10
26443;BME280;5563;52.296;6.806;2023-05-20T09:04:03;102225.63;;;17.57;46.33
26443;BME280;5563;52.296;6.806;2023-05-20T09:06:46;102219.88;;;17.71;46.58
26443;BME280;5563;52.296;6.806;2023-05-20T09:09:13;102214.84;;;17.67;45.51
26443;BME280;5563;52.296;6.806;2023-05-20T09:11:46;102216.63;;;17.87;45.07
26443;BME280;5563;52.296;6.806;2023-05-20T09:14:13;102224.09;;;18.04;46.52
26443;BME280;5563;52.296;6.806;2023-05-20T09:16:48;102217.06;;;18.41;47.48
26443;BME280;5563;52.296;6.806;2023-05-20T09:19:22;102216.06;;;18.71;44.29
26443;BME280;5563;52.296;6.806;2023-05-20T09:21:52;102213.03;;;19.02;43.94
26443;BME280;5563;52.296;6.806;2023-05-20T09:24:25;102201.03;;;19.24;43.74
26443;BME280;5563;52.296;6.806;2023-05-20T09:26:58;102213.13;;;19.20;42.05
26443;BME280;5563;52.296;6.806;2023-05-20T09:29:25;102203.97;;;18.84;41.72
26443;BME280;5563;52.296;6.806;2023-05-20T09:32:00;102216.94;;;18.71;42.54
26443;BME280;5563;52.296;6.806;2023-05-20T09:34:35;102189.34;;;18.58;42.80
26443;BME280;5563;52.296;6.806;2023-05-20T09:37:04;102197.44;;;18.77;42.43
26443;BME280;5563;52.296;6.806;2023-05-20T09:39:59;102205.19;;;19.09;42.77
26443;BME280;5563;52.296;6.806;2023-05-20T09:42:33;102196.94;;;19.10;41.69
26443;BME280;5563;52.296;6.806;2023-05-20T09:45:08;102207.00;;;19.27;42.41
26443;BME280;5563;52.296;6.806;2023-05-20T09:47:37;102206.09;;;19.46;42.51
26443;BME280;5563;52.296;6.806;2023-05-20T09:50:12;102198.59;;;19.40;42.06
26443;BME280;5563;52.296;6.806;2023-05-20T09:52:48;102212.69;;;19.44;40.61
26443;BME280;5563;52.296;6.806;2023-05-20T09:55:17;102195.00;;;19.49;42.17
26443;BME280;5563;52.296;6.806;2023-05-20T09:57:52;102199.94;;;19.63;40.56
26443;BME280;5563;52.296;6.806;2023-05-20T10:00:20;102203.22;;;19.57;40.93
26443;BME280;5563;52.296;6.806;2023-05-20T10:02:54;102189.25;;;19.62;41.99
26443;BME280;5563;52.296;6.806;2023-05-20T10:05:40;102190.31;;;19.51;41.67
26443;BME280;5563;52.296;6.806;2023-05-20T10:11:28;102181.56;;;19.11;42.55
26443;BME280;5563;52.296;6.806;2023-05-20T10:14:14;102189.28;;;19.52;43.09
26443;BME280;5563;52.296;6.806;2023-05-20T10:19:28;102162.69;;;19.48;40.95
26443;BME280;5563;52.296;6.806;2023-05-20T10:22:05;102171.59;;;19.30;40.66
26443;BME280;5563;52.296;6.806;2023-05-20T10:24:42;102164.22;;;19.13;41.99
26443;BME280;5563;52.296;6.806;2023-05-20T10:27:16;102160.44;;;18.87;43.09
26443;BME280;5563;52.296;6.806;2023-05-20T10:29:54;102166.16;;;18.65;42.64
26443;BME280;5563;52.296;6.806;2023-05-20T10:32:30;102140.97;;;18.74;44.64
26443;BME280;5563;52.296;6.806;2023-05-20T10:35:07;102161.91;;;19.28;42.96
26443;BME280;5563;52.296;6.806;2023-05-20T10:37:43;102146.31;;;19.49;42.40
26443;BME280;5563;52.296;6.806;2023-05-20T10:40:21;102119.34;;;19.57;39.90
26443;BME280;5563;52.296;6.806;2023-05-20T10:42:54;102147.38;;;19.83;41.09
26443;BME280;5563;52.296;6.806;2023-05-20T10:45:33;102144.25;;;20.05;41.50
26443;BME280;5563;52.296;6.806;2023-05-20T10:48:19;102146.84;;;19.97;40.36
26443;BME280;5563;52.296;6.806;2023-05-20T10:50:58;102124.16;;;20.08;41.80
26443;BME280;5563;52.296;6.806;2023-05-20T10:53:26;102150.53;;;20.06;41.27
26443;BME280;5563;52.296;6.806;2023-05-20T10:56:00;102129.50;;;20.17;39.95
26443;BME280;5563;52.296;6.806;2023-05-20T10:58:38;102135.84;;;20.26;40.31
26443;BME280;5563;52.296;6.806;2023-05-20T11:01:12;102126.25;;;20.31;39.58
26443;BME280;5563;52.296;6.806;2023-05-20T11:03:42;102119.69;;;20.16;40.49
26443;BME280;5563;52.296;6.806;2023-05-20T11:06:17;102121.13;;;20.11;40.17
26443;BME280;5563;52.296;6.806;2023-05-20T11:08:50;102120.19;;;20.02;40.70
26443;BME280;5563;52.296;6.806;2023-05-20T11:11:17;102120.25;;;20.10;42.70
26443;BME280;5563;52.296;6.806;2023-05-20T11:13:51;102114.34;;;20.24;40.85
26443;BME280;5563;52.296;6.806;2023-05-20T11:16:25;102117.16;;;20.58;40.51
26443;BME280;5563;52.296;6.806;2023-05-20T11:18:58;102126.28;;;21.00;41.81
26443;BME280;5563;52.296;6.806;2023-05-20T11:21:32;102113.16;;;21.13;38.51
26443;BME280;5563;52.296;6.806;2023-05-20T11:24:06;102102.69;;;20.93;39.21
26443;BME280;5563;52.296;6.806;2023-05-20T11:26:41;102107.72;;;21.13;39.71
26443;BME280;5563;52.296;6.806;2023-05-20T11:29:08;102101.56;;;21.37;40.11
26443;BME280;5563;52.296;6.806;2023-05-20T11:31:41;102083.16;;;21.15;37.82
26443;BME280;5563;52.296;6.806;2023-05-20T11:34:15;102099.16;;;21.00;38.95
26443;BME280;5563;52.296;6.806;2023-05-20T11:36:56;102101.66;;;20.94;38.11
26443;BME280;5563;52.296;6.806;2023-05-20T11:39:37;102101.88;;;20.75;37.59
26443;BME280;5563;52.296;6.806;2023-05-20T11:42:20;102084.19;;;20.63;38.39
26443;BME280;5563;52.296;6.806;2023-05-20T11:44:54;102088.19;;;20.84;40.49
26443;BME280;5563;52.296;6.806;2023-05-20T11:47:23;102067.84;;;21.06;39.20
26443;BME280;5563;52.296;6.806;2023-05-20T11:49:55;102088.53;;;21.40;37.72
26443;BME280;5563;52.296;6.806;2023-05-20T11:52:28;102082.13;;;21.58;38.61
26443;BME280;5563;52.296;6.806;2023-05-20T11:54:55;102088.97;;;21.78;37.63
26443;BME280;5563;52.296;6.806;2023-05-20T11:57:29;102060.97;;;21.69;37.00
26443;BME280;5563;52.296;6.806;2023-05-20T12:00:05;102074.94;;;21.82;36.50
26443;BME280;5563;52.296;6.806;2023-05-20T12:02:33;102066.13;;;21.38;37.68
26443;BME280;5563;52.296;6.806;2023-05-20T12:05:07;102063.13;;;21.08;36.04
26443;BME280;5563;52.296;6.806;2023-05-20T12:07:41;102042.78;;;20.78;37.99
26443;BME280;5563;52.296;6.806;2023-05-20T12:10:08;102053.94;;;20.75;37.64
26443;BME280;5563;52.296;6.806;2023-05-20T12:12:42;102063.28;;;21.06;39.74
26443;BME280;5563;52.296;6.806;2023-05-20T12:15:11;102071.56;;;21.38;37.89
26443;BME280;5563;52.296;6.806;2023-05-20T12:17:47;102071.50;;;21.22;37.09
26443;BME280;5563;52.296;6.806;2023-05-20T12:20:22;102057.81;;;20.73;37.79
26443;BME280;5563;52.296;6.806;2023-05-20T12:22:57;102062.25;;;20.56;39.25
26443;BME280;5563;52.296;6.806;2023-05-20T12:25:24;102057.25;;;20.43;38.92
26443;BME280;5563;52.296;6.806;2023-05-20T12:28:00;102064.19;;;20.64;38.35
26443;BME280;5563;52.296;6.806;2023-05-20T12:30:36;102049.97;;;20.95;37.53
26443;BME280;5563;52.296;6.806;2023-05-20T12:33:03;102058.28;;;21.27;38.03
26443;BME280;5563;52.296;6.806;2023-05-20T12:35:38;102039.56;;;21.58;37.68
26443;BME280;5563;52.296;6.806;2023-05-20T12:38:06;102020.63;;;21.82;36.80
26443;BME280;5563;52.296;6.806;2023-05-20T12:40:46;102035.22;;;22.21;36.98
26443;BME280;5563;52.296;6.806;2023-05-20T12:43:13;102042.19;;;22.48;36.40
26443;BME280;5563;52.296;6.806;2023-05-20T12:45:47;102035.94;;;22.31;34.00
26443;BME280;5563;52.296;6.806;2023-05-20T12:48:20;102046.13;;;22.13;34.99
26443;BME280;5563;52.296;6.806;2023-05-20T12:50:53;102029.25;;;21.78;35.74
26443;BME280;5563;52.296;6.806;2023-05-20T12:53:20;102035.34;;;21.72;36.49
26443;BME280;5563;52.296;6.806;2023-05-20T12:55:54;102031.16;;;21.85;35.56
26443;BME280;5563;52.296;6.806;2023-05-20T12:58:21;102018.94;;;22.05;36.73
26443;BME280;5563;52.296;6.806;2023-05-20T13:00:54;102019.63;;;22.31;35.28
26443;BME280;5563;52.296;6.806;2023-05-20T13:03:28;102011.59;;;22.54;35.05
26443;BME280;5563;52.296;6.806;2023-05-20T13:06:02;102019.63;;;22.31;34.96
26443;BME280;5563;52.296;6.806;2023-05-20T13:08:29;102021.84;;;21.96;36.35
26443;BME280;5563;52.296;6.806;2023-05-20T13:10:56;102033.09;;;21.51;35.86
26443;BME280;5563;52.296;6.806;2023-05-20T13:13:29;102035.13;;;20.99;37.58
26443;BME280;5563;52.296;6.806;2023-05-20T13:15:56;102027.22;;;20.88;36.40
26443;BME280;5563;52.296;6.806;2023-05-20T13:18:30;102008.88;;;21.08;36.76
26443;BME280;5563;52.296;6.806;2023-05-20T13:20:57;102016.66;;;21.61;36.08
26443;BME280;5563;52.296;6.806;2023-05-20T13:23:31;102015.03;;;22.00;35.56
26443;BME280;5563;52.296;6.806;2023-05-20T13:25:57;102007.06;;;22.22;34.95
26443;BME280;5563;52.296;6.806;2023-05-20T13:28:30;102012.44;;;22.46;34.58
26443;BME280;5563;52.296;6.806;2023-05-20T13:30:57;102010.06;;;22.51;34.60
26443;BME280;5563;52.296;6.806;2023-05-20T13:33:31;102007.91;;;22.15;35.53
26443;BME280;5563;52.296;6.806;2023-05-20T13:35:58;102001.44;;;21.84;35.68